Time;durP1;ratioP1;P1;durP2;ratioP2;P2;SDS_P1;SDS_P2;PMS_P1;PMS_P2;Temp;Humidity;BMP_temperature;BMP_pressure;BME280_temperature;BME280_humidity;BME280_pressure;Samples;Min_cycle;Max_cycle;Signal;HPM_P1;HPM_P2
2020/12/01 00:00:36;;;;;;;60.33;24.58;;;;;;;1.18;100.00;100822.25;5076249;28;20106;-66
2020/12/01 00:03:20;;;;;;;63.75;27.42;;;;;;;1.19;100.00;100826.56;5075240;28;20056;-66
2020/12/01 00:06:04;;;;;;;75.38;34.05;;;;;;;1.16;100.00;100828.47;5076031;28;20441;-66
2020/12/01 00:08:48;;;;;;;70.97;33.50;;;;;;;1.10;100.00;100829.63;5075892;28;20051;-66
2020/12/01 00:11:32;;;;;;;64.93;28.85;;;;;;;1.16;100.00;100826.69;5075050;28;20051;-66
2020/12/01 00:14:16;;;;;;;68.30;32.15;;;;;;;1.18;100.00;100824.00;5075145;28;20177;-66
2020/12/01 00:17:01;;;;;;;75.95;33.30;;;;;;;1.13;100.00;100813.72;5075544;28;20561;-65
2020/12/01 00:19:45;;;;;;;80.28;32.17;;;;;;;1.09;100.00;100809.53;5060809;28;20417;-65
2020/12/01 00:22:29;;;;;;;47.00;22.45;;;;;;;1.10;100.00;100816.50;5074814;28;20463;-65
2020/12/01 00:25:15;;;;;;;72.40;32.92;;;;;;;1.10;100.00;100811.25;5075736;28;20215;-66
2020/12/01 00:27:59;;;;;;;69.30;33.60;;;;;;;1.08;100.00;100801.72;5074762;28;20496;-65
2020/12/01 00:30:43;;;;;;;80.00;35.00;;;;;;;1.12;100.00;100780.50;5075934;28;20551;-66
2020/12/01 00:33:27;;;;;;;69.82;33.42;;;;;;;1.09;100.00;100779.78;5075469;28;20047;-66
2020/12/01 00:36:11;;;;;;;74.53;33.58;;;;;;;1.10;100.00;100782.38;5075530;28;20413;-65
2020/12/01 00:38:56;;;;;;;60.35;27.38;;;;;;;1.15;100.00;100776.88;5074550;28;20083;-65
2020/12/01 00:41:40;;;;;;;43.53;20.60;;;;;;;1.14;100.00;100791.78;5074575;28;20052;-65
2020/12/01 00:44:24;;;;;;;61.50;29.48;;;;;;;1.10;100.00;100776.25;5074208;28;20420;-65
2020/12/01 00:47:08;;;;;;;;;;;;;;;1.11;100.00;100770.06;5075829;28;20400;-65
2020/12/01 00:49:52;;;;;;;51.87;24.27;;;;;;;1.14;100.00;100755.03;5075403;28;20350;-65
2020/12/01 00:52:36;;;;;;;54.88;22.75;;;;;;;1.13;100.00;100755.94;5074380;28;20169;-65
2020/12/01 00:55:20;;;;;;;74.85;36.10;;;;;;;1.08;100.00;100747.47;5074269;28;20087;-66
2020/12/01 00:58:04;;;;;;;67.68;30.65;;;;;;;1.08;100.00;100729.06;5073989;28;20519;-66
2020/12/01 01:00:49;;;;;;;57.90;24.40;;;;;;;1.11;100.00;100744.69;5075141;28;20043;-66
2020/12/01 01:03:33;;;;;;;71.65;33.50;;;;;;;1.05;100.00;100710.81;5074842;28;20052;-65
2020/12/01 01:06:16;;;;;;;68.95;30.60;;;;;;;1.09;100.00;100719.41;5074788;28;20094;-65
2020/12/01 01:09:00;;;;;;;47.15;23.10;;;;;;;1.10;100.00;100716.72;5074739;28;20055;-65
2020/12/01 01:11:45;;;;;;;67.15;29.13;;;;;;;1.12;100.00;100703.50;5074208;28;20162;-65
2020/12/01 01:14:29;;;;;;;82.07;35.50;;;;;;;1.13;100.00;100689.47;5073905;28;20535;-65
2020/12/01 01:17:13;;;;;;;54.45;25.15;;;;;;;1.16;100.00;100684.06;5074368;28;20074;-65
2020/12/01 01:19:57;;;;;;;56.42;24.23;;;;;;;1.16;100.00;100713.78;5074791;28;20197;-65
2020/12/01 01:22:41;;;;;;;70.72;29.30;;;;;;;1.18;100.00;100704.06;5073662;28;20086;-65
2020/12/01 01:25:25;;;;;;;78.60;34.08;;;;;;;1.21;100.00;100696.03;5074410;28;20048;-65
2020/12/01 01:28:09;;;;;;;69.68;31.85;;;;;;;1.20;100.00;100683.84;5074606;28;20070;-66
2020/12/01 01:30:53;;;;;;;73.93;33.95;;;;;;;1.22;100.00;100684.59;5073301;28;20051;-65
2020/12/01 01:33:37;;;;;;;71.70;31.55;;;;;;;1.25;100.00;100676.56;5074211;28;20048;-65
2020/12/01 01:36:20;;;;;;;63.40;28.52;;;;;;;1.26;100.00;100670.38;5074227;28;20051;-65
2020/12/01 01:39:06;;;;;;;61.53;25.60;;;;;;;1.30;100.00;100671.94;5074351;28;20044;-66
2020/12/01 01:41:50;;;;;;;63.10;30.23;;;;;;;1.28;100.00;100673.81;5074070;28;20044;-65
2020/12/01 01:44:34;;;;;;;59.00;25.85;;;;;;;1.29;100.00;100674.63;5074223;28;20113;-65
2020/12/01 01:47:22;;;;;;;61.38;26.67;;;;;;;1.29;100.00;100662.38;5058688;28;20054;-65
2020/12/01 01:50:16;;;;;;;52.47;22.75;;;;;;;1.26;100.00;100652.00;5072927;28;20054;-65
2020/12/01 01:53:00;;;;;;;76.72;32.85;;;;;;;1.22;100.00;100639.97;5072881;28;20123;-65
2020/12/01 01:55:45;;;;;;;75.40;31.67;;;;;;;1.28;100.00;100637.03;5073926;28;20063;-65
2020/12/01 01:58:34;;;;;;;68.85;31.58;;;;;;;1.27;100.00;100645.81;5073027;28;20182;-65
2020/12/01 02:01:24;;;;;;;77.55;33.00;;;;;;;1.27;100.00;100656.31;5073822;28;20409;-65
2020/12/01 02:04:11;;;;;;;74.20;31.90;;;;;;;1.31;100.00;100647.38;5073944;28;20512;-65
2020/12/01 02:07:00;;;;;;;66.60;28.52;;;;;;;1.32;100.00;100637.72;5072710;28;20048;-65
2020/12/01 02:09:52;;;;;;;63.33;27.60;;;;;;;1.36;100.00;100644.53;5072629;28;20131;-65
2020/12/01 02:12:37;;;;;;;64.68;28.02;;;;;;;1.34;100.00;100636.72;5073076;28;20051;-65
2020/12/01 02:15:21;;;;;;;48.38;19.20;;;;;;;1.31;100.00;100618.50;5073335;28;20043;-66
2020/12/01 02:18:05;;;;;;;;;;;;;;;1.31;100.00;100615.88;5073865;28;20056;-65
2020/12/01 02:20:49;;;;;;;66.57;28.87;;;;;;;1.26;100.00;100617.84;5072718;28;19961;-65
2020/12/01 02:23:33;;;;;;;62.33;28.17;;;;;;;1.27;100.00;100619.56;5073600;28;20515;-65
2020/12/01 02:26:17;;;;;;;74.40;31.38;;;;;;;1.27;100.00;100605.59;5072494;28;20055;-66
2020/12/01 02:29:05;;;;;;;61.03;27.85;;;;;;;1.24;100.00;100603.97;5072606;28;20058;-65
2020/12/01 02:31:49;;;;;;;61.25;24.88;;;;;;;1.26;100.00;100602.09;5073469;28;20051;-65
2020/12/01 02:34:38;;;;;;;41.38;17.58;;;;;;;1.24;100.00;100582.13;5072538;28;20113;-66
2020/12/01 02:37:24;;;;;;;87.13;35.53;;;;;;;1.19;100.00;100569.22;5072672;28;20042;-65
2020/12/01 02:40:10;;;;;;;67.72;29.50;;;;;;;1.16;100.00;100564.09;5072514;28;20051;-66
2020/12/01 02:42:54;;;;;;;72.60;32.63;;;;;;;1.15;100.00;100559.78;5057935;28;20093;-65
2020/12/01 02:45:38;;;;;;;79.75;34.40;;;;;;;1.13;100.00;100559.03;5073021;28;20508;-65
2020/12/01 02:48:23;;;;;;;77.30;33.88;;;;;;;1.14;100.00;100570.38;5072018;28;20090;-65
2020/12/01 02:51:08;;;;;;;81.10;35.63;;;;;;;1.13;100.00;100568.69;5073341;28;20507;-65
2020/12/01 02:53:52;;;;;;;70.03;29.23;;;;;;;1.15;100.00;100551.06;5073318;28;20047;-65
2020/12/01 02:56:36;;;;;;;71.35;30.75;;;;;;;1.11;100.00;100573.16;5072972;28;20431;-65
2020/12/01 02:59:20;;;;;;;69.93;29.63;;;;;;;1.09;100.00;100549.63;5072187;28;20056;-65
2020/12/01 03:02:03;;;;;;;63.20;26.75;;;;;;;1.07;100.00;100540.94;5073257;28;20047;-65
2020/12/01 03:04:48;;;;;;;57.85;23.30;;;;;;;1.04;100.00;100554.25;5072112;28;20459;-66
2020/12/01 03:07:32;;;;;;;73.75;32.20;;;;;;;1.03;100.00;100536.78;5072883;28;20182;-65
2020/12/01 03:10:15;;;;;;;65.18;29.73;;;;;;;0.99;100.00;100534.41;5073137;28;20165;-64
2020/12/01 03:12:59;;;;;;;;;;;;;;;0.93;100.00;100525.06;5072345;28;20102;-65
2020/12/01 03:15:45;;;;;;;72.50;32.05;;;;;;;0.91;100.00;100524.31;5074470;28;19966;-65
2020/12/01 03:18:29;;;;;;;81.97;34.03;;;;;;;0.92;100.00;100519.88;5072792;28;20043;-65
2020/12/01 03:21:15;;;;;;;78.63;33.90;;;;;;;0.93;100.00;100517.19;5071809;28;20113;-66
2020/12/01 03:23:59;;;;;;;64.43;26.95;;;;;;;0.96;100.00;100517.03;5071742;28;20056;-65
2020/12/01 03:26:43;;;;;;;54.63;23.10;;;;;;;0.98;100.00;100525.69;5071633;28;20071;-65
2020/12/01 03:29:28;;;;;;;75.35;32.88;;;;;;;1.00;100.00;100520.34;5073000;28;20091;-65
2020/12/01 03:32:12;;;;;;;66.50;24.33;;;;;;;1.01;100.00;100504.53;5072742;28;20110;-65
2020/12/01 03:34:56;;;;;;;71.28;32.50;;;;;;;1.00;100.00;100518.59;5072653;28;20055;-65
2020/12/01 03:37:40;;;;;;;63.78;26.63;;;;;;;1.04;100.00;100503.53;5057493;28;20151;-65
2020/12/01 03:40:24;;;;;;;69.45;29.85;;;;;;;1.05;100.00;100513.09;5072611;28;20052;-65
2020/12/01 03:43:08;;;;;;;;;;;;;;;1.02;100.00;100508.84;5072297;28;20052;-66
2020/12/01 03:45:53;;;;;;;69.37;28.17;;;;;;;1.01;100.00;100501.91;5071410;28;19923;-65
2020/12/01 03:48:37;;;;;;;71.50;30.27;;;;;;;0.94;100.00;100505.75;5073199;28;20800;-65
2020/12/01 03:51:21;;;;;;;77.90;32.50;;;;;;;0.95;100.00;100496.94;5076464;28;20055;-65
2020/12/01 03:54:05;;;;;;;68.82;30.77;;;;;;;0.96;100.00;100503.91;5075442;28;20524;-65
2020/12/01 03:56:49;;;;;;;70.00;30.77;;;;;;;0.94;100.00;100497.88;5076041;28;20401;-65
2020/12/01 03:59:33;;;;;;;61.45;26.33;;;;;;;0.93;100.00;100490.13;5075357;28;20135;-66
2020/12/01 04:02:18;;;;;;;82.28;34.05;;;;;;;0.87;100.00;100483.41;5076526;28;20047;-66
2020/12/01 04:05:02;;;;;;;;;;;;;;;0.89;100.00;100481.53;5075291;28;20455;-66
2020/12/01 04:07:46;;;;;;;72.13;29.52;;;;;;;0.91;100.00;100474.44;5076041;28;19966;-66
2020/12/01 04:10:30;;;;;;;69.15;29.40;;;;;;;0.84;100.00;100480.91;5076191;28;20048;-66
2020/12/01 04:13:14;;;;;;;71.13;28.05;;;;;;;0.92;100.00;100486.63;5075072;28;20051;-66
2020/12/01 04:15:58;;;;;;;86.32;34.53;;;;;;;0.94;100.00;100483.94;5075722;28;20063;-66
2020/12/01 04:18:42;;;;;;;82.60;30.88;;;;;;;0.96;100.00;100482.06;5075012;28;20407;-65
2020/12/01 04:21:26;;;;;;;82.50;34.25;;;;;;;1.00;100.00;100475.72;5060791;28;20051;-65
2020/12/01 04:24:10;;;;;;;72.65;30.25;;;;;;;0.99;100.00;100477.50;5074662;28;20055;-66
2020/12/01 04:26:54;;;;;;;70.82;28.58;;;;;;;0.99;100.00;100485.38;5075382;28;20078;-65
2020/12/01 04:29:38;;;;;;;72.32;31.20;;;;;;;1.04;100.00;100475.47;5075658;28;20047;-66
2020/12/01 04:32:23;;;;;;;77.25;32.35;;;;;;;1.02;100.00;100477.34;5074765;28;20137;-66
2020/12/01 04:35:07;;;;;;;72.25;31.58;;;;;;;1.09;100.00;100475.25;5075642;28;20455;-66
2020/12/01 04:37:52;;;;;;;92.95;36.22;;;;;;;1.06;100.00;100473.63;5074513;28;20488;-65
2020/12/01 04:40:39;;;;;;;82.65;34.72;;;;;;;1.10;100.00;100480.44;5074630;28;20083;-65
2020/12/01 04:43:29;;;;;;;75.45;31.85;;;;;;;1.10;100.00;100475.19;5074532;28;20047;-65
2020/12/01 04:46:22;;;;;;;71.32;30.30;;;;;;;1.11;100.00;100471.63;5075178;28;20048;-65
2020/12/01 04:49:34;;;;;;;57.50;24.88;;;;;;;1.14;100.00;100481.94;5074129;28;20043;-65
2020/12/01 04:52:49;;;;;;;74.18;33.10;;;;;;;1.18;100.00;100473.00;5074182;28;20082;-65
2020/12/01 04:56:04;;;;;;;68.57;31.98;;;;;;;1.15;100.00;100473.16;5075145;28;20086;-65
2020/12/01 04:59:09;;;;;;;82.18;34.67;;;;;;;1.15;100.00;100469.69;5073887;28;20451;-65
2020/12/01 05:02:19;;;;;;;90.15;34.47;;;;;;;1.14;100.00;100455.69;5075009;28;20535;-65
2020/12/01 05:06:08;;;;;;;82.68;33.00;;;;;;;1.19;100.00;100461.56;5073675;28;20550;-65
2020/12/01 05:08:57;;;;;;;65.22;27.58;;;;;;;1.17;100.00;100463.41;5074970;28;20492;-65
2020/12/01 05:11:57;;;;;;;76.97;33.47;;;;;;;1.10;100.00;100459.44;5073925;28;20097;-65
2020/12/01 05:14:46;;;;;;;79.32;32.67;;;;;;;1.13;100.00;100461.06;5073809;28;20051;-65
2020/12/01 05:17:35;;;;;;;70.10;27.67;;;;;;;1.11;100.00;100442.75;5074516;28;20097;-65
2020/12/01 05:20:20;;;;;;;72.10;30.15;;;;;;;1.13;100.00;100448.75;5074782;28;20421;-65
2020/12/01 05:23:04;;;;;;;55.30;24.80;;;;;;;1.16;100.00;100451.19;5059352;28;20055;-65
2020/12/01 05:26:00;;;;;;;74.65;29.90;;;;;;;1.17;100.00;100452.06;5074257;28;20097;-65
2020/12/01 05:28:56;;;;;;;63.35;27.60;;;;;;;1.16;100.00;100453.81;5074647;28;20047;-65
2020/12/01 05:31:41;;;;;;;76.97;30.85;;;;;;;1.17;100.00;100450.28;5059232;28;20047;-65
2020/12/01 05:34:25;;;;;;;70.22;30.70;;;;;;;1.21;100.00;100451.81;5074515;28;20125;-65
2020/12/01 05:37:10;;;;;;;76.20;31.30;;;;;;;1.20;100.00;100442.25;5073174;28;20066;-65
2020/12/01 05:39:54;;;;;;;63.25;26.35;;;;;;;1.21;100.00;100440.47;5059360;28;20087;-65
2020/12/01 05:42:44;;;;;;;66.78;28.40;;;;;;;1.24;100.00;100435.91;5074367;28;20079;-65
2020/12/01 05:45:34;;;;;;;84.78;33.60;;;;;;;1.23;100.00;100428.13;5072870;28;20052;-65
2020/12/01 05:48:57;;;;;;;45.70;19.92;;;;;;;1.26;100.00;100443.72;5073077;28;20039;-65
2020/12/01 05:51:44;;;;;;;71.53;30.48;;;;;;;1.34;100.00;100441.53;5074153;28;20051;-65
2020/12/01 05:54:49;;;;;;;71.93;30.05;;;;;;;1.33;100.00;100435.41;5073085;28;20095;-65
2020/12/01 05:57:33;;;;;;;48.78;19.15;;;;;;;1.34;100.00;100434.47;5072743;28;20111;-65
2020/12/01 06:00:23;;;;;;;65.55;29.95;;;;;;;1.33;100.00;100451.16;5073969;28;20051;-64
2020/12/01 06:03:17;;;;;;;68.40;29.95;;;;;;;1.29;100.00;100449.66;5072627;28;20158;-65
2020/12/01 06:06:02;;;;;;;;;;;;;;;1.32;100.00;100438.97;5074301;28;20047;-65
2020/12/01 06:08:57;;;;;;;75.90;29.70;;;;;;;1.36;100.00;100442.28;5073709;28;19918;-65
2020/12/01 06:11:47;;;;;;;64.85;27.17;;;;;;;1.39;100.00;100444.72;5071826;28;20050;-65
2020/12/01 06:14:43;;;;;;;54.10;22.77;;;;;;;1.35;100.00;100449.28;5072490;28;20511;-65
2020/12/01 06:17:46;;;;;;;75.93;31.98;;;;;;;1.35;100.00;100451.94;5072277;28;20511;-65
2020/12/01 06:20:40;;;;;;;75.13;30.98;;;;;;;1.34;100.00;100455.47;5072396;28;20163;-66
2020/12/01 06:23:40;;;;;;;73.38;29.73;;;;;;;1.36;100.00;100456.25;5058527;28;20090;-65
2020/12/01 06:26:38;;;;;;;61.20;27.90;;;;;;;1.36;100.00;100440.47;5072151;28;20083;-65
2020/12/01 06:29:46;;;;;;;63.88;28.45;;;;;;;1.33;100.00;100451.16;5072324;28;20078;-65
2020/12/01 06:33:01;;;;;;;58.13;26.45;;;;;;;1.34;100.00;100450.22;5073568;28;20078;-66
2020/12/01 06:36:00;;;;;;;;;;;;;;;1.32;100.00;100438.97;5073830;28;20055;-65
2020/12/01 06:39:31;;;;;;;54.22;24.90;;;;;;;1.32;100.00;100436.34;5072543;28;20331;-65
2020/12/01 06:42:24;;;;;;;70.00;28.70;;;;;;;1.34;100.00;100431.00;5067891;28;20094;-65
2020/12/01 06:45:19;;;;;;;46.80;19.38;;;;;;;1.35;100.00;100449.28;5071959;28;20043;-65
2020/12/01 06:48:12;;;;;;;66.28;28.95;;;;;;;1.32;100.00;100433.72;5072285;28;20078;-65
2020/12/01 06:50:59;;;;;;;62.03;25.80;;;;;;;1.36;100.00;100429.97;5073328;28;20083;-65
2020/12/01 06:53:43;;;;;;;60.30;27.83;;;;;;;1.39;100.00;100434.22;5072320;28;20102;-65
2020/12/01 06:56:27;;;;;;;50.55;20.05;;;;;;;1.38;100.00;100432.53;5073033;28;20050;-65
2020/12/01 06:59:12;;;;;;;55.67;25.35;;;;;;;1.39;100.00;100444.72;5072241;28;20052;-65
2020/12/01 07:02:17;;;;;;;63.60;27.38;;;;;;;1.34;100.00;100437.09;5071954;28;20074;-65
2020/12/01 07:05:31;;;;;;;38.78;14.82;;;;;;;1.38;100.00;100448.28;5073127;28;20044;-65
2020/12/01 07:08:25;;;;;;;58.03;25.13;;;;;;;1.39;100.00;100435.09;5071899;28;20052;-65
2020/12/01 07:11:12;;;;;;;;;;;;;;;1.37;100.00;100452.69;5072651;28;20043;-65
2020/12/01 07:13:59;;;;;;;52.55;22.40;;;;;;;1.36;100.00;100442.28;5072101;28;19920;-65
2020/12/01 07:16:46;;;;;;;63.65;24.65;;;;;;;1.39;100.00;100445.59;5071743;28;20090;-65
2020/12/01 07:19:41;;;;;;;50.88;20.98;;;;;;;1.40;100.00;100452.53;5072132;28;20047;-65
2020/12/01 07:22:48;;;;;;;56.10;23.65;;;;;;;1.40;100.00;100447.28;5073213;28;20050;-65
2020/12/01 07:25:37;;;;;;;53.50;24.05;;;;;;;1.39;100.00;100442.09;5075853;28;20543;-65
2020/12/01 07:28:28;;;;;;;61.28;26.38;;;;;;;1.42;100.00;100445.41;5075947;28;20070;-65
2020/12/01 07:31:25;;;;;;;26.08;13.43;;;;;;;1.42;100.00;100440.16;5075935;28;20067;-65
2020/12/01 07:34:21;;;;;;;65.47;28.30;;;;;;;1.44;100.00;100433.03;5075837;28;20097;-65
2020/12/01 07:37:30;;;;;;;61.50;23.38;;;;;;;1.45;100.00;100442.63;5076678;28;20063;-65
2020/12/01 07:40:23;;;;;;;63.03;26.17;;;;;;;1.45;100.00;100426.84;5076723;28;20089;-65
2020/12/01 07:43:11;;;;;;;69.53;29.00;;;;;;;1.46;100.00;100427.72;5076685;28;20048;-65
2020/12/01 07:46:01;;;;;;;67.22;28.67;;;;;;;1.44;100.00;100433.03;5076081;28;20066;-65
2020/12/01 07:48:56;;;;;;;61.30;25.05;;;;;;;1.52;100.00;100425.59;5075235;28;20070;-65
2020/12/01 07:51:41;;;;;;;57.85;25.40;;;;;;;1.51;100.00;100437.03;5075365;28;20409;-65
2020/12/01 07:54:26;;;;;;;72.38;29.77;;;;;;;1.50;100.00;100427.47;5075399;28;20462;-65
2020/12/01 07:57:12;;;;;;;60.65;25.25;;;;;;;1.53;100.00;100437.81;5076366;28;20091;-65
2020/12/01 07:59:57;;;;;;;44.25;18.08;;;;;;;1.54;100.00;100444.75;5075199;28;20508;-65
2020/12/01 08:02:41;;;;;;;62.38;26.70;;;;;;;1.54;100.00;100442.13;5075240;28;20056;-65
2020/12/01 08:05:25;;;;;;;62.65;25.35;;;;;;;1.51;100.00;100444.06;5074801;28;20467;-65
2020/12/01 08:08:17;;;;;;;66.57;26.45;;;;;;;1.53;100.00;100450.94;5075923;28;20074;-65
2020/12/01 08:11:03;;;;;;;57.35;25.38;;;;;;;1.57;100.00;100454.25;5076377;28;20051;-65
2020/12/01 08:13:51;;;;;;;59.15;27.95;;;;;;;1.57;100.00;100455.06;5075084;28;20069;-65
2020/12/01 08:16:35;;;;;;;55.10;23.33;;;;;;;1.58;100.00;100451.53;5074601;28;20504;-65
2020/12/01 08:19:19;;;;;;;51.20;23.75;;;;;;;1.60;100.00;100451.44;5075786;28;20051;-65
2020/12/01 08:22:05;;;;;;;58.75;24.90;;;;;;;1.58;100.00;100454.16;5074879;28;20575;-65
2020/12/01 08:24:50;;;;;;;49.75;21.10;;;;;;;1.59;100.00;100469.00;5075130;28;20039;-65
2020/12/01 08:27:50;;;;;;;59.78;26.67;;;;;;;1.60;100.00;100460.19;5075660;28;20514;-65
2020/12/01 08:30:46;;;;;;;47.53;21.55;;;;;;;1.58;100.00;100462.03;5074123;28;20047;-64
2020/12/01 08:34:11;;;;;;;54.50;22.85;;;;;;;1.61;100.00;100455.78;5074059;28;20086;-65
2020/12/01 08:36:55;;;;;;;;;;;;;;;1.60;100.00;100452.31;5075704;28;20559;-65
2020/12/01 08:39:55;;;;;;;67.40;26.48;;;;;;;1.64;100.00;100451.19;5075410;28;20023;-64
2020/12/01 08:43:15;;;;;;;48.22;21.38;;;;;;;1.60;100.00;100444.44;5074536;28;20101;-65
2020/12/01 08:46:01;;;;;;;51.05;23.55;;;;;;;1.65;100.00;100450.25;5045386;28;20055;-65
2020/12/01 08:49:23;;;;;;;44.78;17.90;;;;;;;1.66;100.00;100446.69;5075262;28;20550;-65
2020/12/01 08:52:27;;;;;;;59.08;23.83;;;;;;;1.67;100.00;100456.28;5074222;28;20093;-65
2020/12/01 08:55:23;;;;;;;47.88;21.25;;;;;;;1.73;100.00;100455.94;5075219;28;20047;-65
2020/12/01 08:58:14;;;;;;;48.72;22.23;;;;;;;1.79;100.00;100455.63;5074249;28;20404;-65
2020/12/01 09:01:01;;;;;;;52.97;24.55;;;;;;;1.84;100.00;100455.34;5074965;28;20091;-65
2020/12/01 09:03:59;;;;;;;56.00;24.95;;;;;;;1.85;100.00;100454.44;5060060;28;20048;-66
2020/12/01 09:06:43;;;;;;;45.60;21.63;;;;;;;1.87;100.00;100461.28;5074916;28;20094;-64
2020/12/01 09:09:28;;;;;;;42.08;21.30;;;;;;;1.94;100.00;100462.63;5074872;28;20043;-63
2020/12/01 09:16:21;;;;;;;45.67;22.20;;;;;;;1.99;100.00;100462.38;5074964;28;20055;-64
2020/12/01 09:24:30;;;;;;;;;;;;;;;2.08;100.00;100472.38;5074566;28;20047;-67
2020/12/01 09:27:16;;;;;;;39.58;18.23;;;;;;;2.10;100.00;100466.13;5074394;28;19927;-67
2020/12/01 09:30:00;;;;;;;39.88;17.85;;;;;;;2.22;100.00;100465.41;5074276;28;20542;-68
2020/12/01 09:32:46;;;;;;;29.83;15.40;;;;;;;2.18;100.00;100463.06;5074306;28;20070;-68
2020/12/01 09:35:31;;;;;;;46.60;22.75;;;;;;;2.21;100.00;100469.00;5074520;28;20071;-68
2020/12/01 09:38:15;;;;;;;40.90;20.58;;;;;;;2.23;100.00;100472.38;5073392;28;20554;-68
2020/12/01 09:40:59;;;;;;;38.67;19.55;;;;;;;2.29;100.00;100472.00;5074193;28;20054;-68
2020/12/01 09:46:57;;;;;;;42.78;20.27;;;;;;;2.37;100.00;100474.22;5052045;28;20524;-68
2020/12/01 09:49:41;;;;;;;32.53;16.70;;;;;;;2.32;100.00;100481.50;5072994;28;20551;-68
2020/12/01 09:52:33;;;;;;;45.67;21.13;;;;;;;2.32;100.00;100477.09;5074091;28;20059;-67
2020/12/01 09:55:43;;;;;;;40.75;19.70;;;;;;;2.36;100.00;100475.97;5074273;28;20082;-68
2020/12/01 10:05:01;;;;;;;32.42;14.80;;;;;;;2.37;100.00;100469.78;5074077;28;20515;-68
2020/12/01 10:07:54;;;;;;;41.03;20.35;;;;;;;2.39;100.00;100472.34;5074042;28;20166;-67
2020/12/01 10:29:38;;;;;;;45.33;20.42;;;;;;;2.42;100.00;100478.28;5073350;28;20048;-66
2020/12/01 10:34:23;;;;;;;40.75;18.08;;;;;;;2.42;100.00;100476.47;5058792;28;20087;-68
2020/12/01 10:37:07;;;;;;;35.17;16.45;;;;;;;2.39;100.00;100482.88;5073157;28;20086;-66
2020/12/01 10:39:51;;;;;;;37.40;16.17;;;;;;;2.37;100.00;100479.47;5073229;28;20043;-67
2020/12/01 10:42:36;;;;;;;31.02;15.80;;;;;;;2.33;100.00;100478.81;5072433;28;20044;-66
2020/12/01 10:45:21;;;;;;;40.70;18.25;;;;;;;2.34;100.00;100477.00;5058362;28;20508;-68
2020/12/01 10:48:05;;;;;;;38.40;17.00;;;;;;;2.35;100.00;100490.06;5073131;28;20087;-68
2020/12/01 10:50:49;;;;;;;44.25;20.63;;;;;;;2.33;100.00;100480.56;5073317;28;20055;-68
2020/12/01 10:53:35;;;;;;;47.20;20.75;;;;;;;2.33;100.00;100483.19;5072097;28;20047;-68
2020/12/01 10:56:19;;;;;;;36.88;16.75;;;;;;;2.38;100.00;100475.91;5071918;28;20114;-67
2020/12/01 10:59:03;;;;;;;39.75;19.27;;;;;;;2.34;100.00;100469.97;5072993;28;20067;-69
2020/12/01 11:01:48;;;;;;;34.45;17.17;;;;;;;2.31;100.00;100480.69;5072973;28;20051;-66
2020/12/01 11:04:32;;;;;;;44.78;20.13;;;;;;;2.33;100.00;100473.53;5058148;28;20133;-68
2020/12/01 11:07:16;;;;;;;34.45;17.10;;;;;;;2.34;100.00;100469.97;5072041;28;20078;-66
2020/12/01 11:10:00;;;;;;;42.10;20.05;;;;;;;2.32;100.00;100477.09;5073102;28;20048;-65
2020/12/01 11:12:44;;;;;;;28.85;14.05;;;;;;;2.39;100.00;100470.53;5072917;28;20131;-66
2020/12/01 11:15:28;;;;;;;27.10;11.63;;;;;;;2.37;100.00;100471.59;5071860;28;20558;-68
2020/12/01 11:18:12;;;;;;;33.20;17.17;;;;;;;2.38;100.00;100476.75;5057464;28;20516;-66
2020/12/01 11:20:56;;;;;;;39.85;18.75;;;;;;;2.38;100.00;100478.53;5057980;28;20047;-69
2020/12/01 11:23:40;;;;;;;33.08;14.77;;;;;;;2.33;100.00;100484.06;5073035;28;20091;-69
2020/12/01 11:26:24;;;;;;;;;;;;;;;2.35;100.00;100476.94;5073084;28;20126;-67
2020/12/01 11:29:08;;;;;;;24.90;13.23;;;;;;;2.35;100.00;100482.19;5072933;28;19923;-67
2020/12/01 11:31:52;;;;;;;36.75;18.30;;;;;;;2.39;100.00;100475.81;5072826;28;20131;-68
2020/12/01 11:34:38;;;;;;;28.60;15.02;;;;;;;2.40;100.00;100480.13;5071627;28;20056;-67
2020/12/01 11:37:22;;;;;;;25.80;12.43;;;;;;;2.34;100.00;100484.91;5071659;28;20113;-67
2020/12/01 11:40:08;;;;;;;32.08;16.08;;;;;;;2.35;100.00;100487.44;5072948;28;20047;-68
2020/12/01 11:42:53;;;;;;;43.90;19.10;;;;;;;2.34;100.00;100477.88;5058038;28;20059;-66
2020/12/01 11:45:37;;;;;;;31.63;15.77;;;;;;;2.42;100.00;100486.16;5071608;28;20101;-66
2020/12/01 11:48:21;;;;;;;30.70;17.27;;;;;;;2.42;100.00;100487.94;5071671;28;20082;-67
2020/12/01 11:51:05;;;;;;;27.70;15.32;;;;;;;2.43;100.00;100490.50;5071644;28;20128;-68
2020/12/01 11:53:48;;;;;;;;;;;;;;;2.39;100.00;100499.47;5073150;28;20058;-68
2020/12/01 11:56:32;;;;;;;33.77;16.27;;;;;;;2.38;100.00;100497.78;5072783;28;20391;-69
2020/12/01 11:59:16;;;;;;;;;;;;;;;2.41;100.00;100495.00;5071862;28;20051;-68
2020/12/01 12:02:00;;;;;;;26.95;15.30;;;;;;;2.41;100.00;100502.91;5071805;28;19998;-67
2020/12/01 12:04:44;;;;;;;31.88;16.42;;;;;;;2.36;100.00;100499.66;5071690;28;20056;-68
2020/12/01 12:07:28;;;;;;;37.45;17.67;;;;;;;2.43;100.00;100493.13;5071394;28;20483;-68
2020/12/01 12:10:13;;;;;;;;;;;;;;;2.47;100.00;100497.25;5075537;28;20051;-68
2020/12/01 12:12:57;;;;;;;35.13;17.33;;;;;;;2.49;100.00;100487.50;5074780;28;19970;-68
2020/12/01 12:15:40;;;;;;;34.28;17.50;;;;;;;2.53;100.00;100486.41;5074826;28;20125;-68
2020/12/01 12:18:24;;;;;;;34.22;18.10;;;;;;;2.59;100.00;100488.66;5074587;28;20059;-68
2020/12/01 12:21:09;;;;;;;32.55;17.80;;;;;;;2.64;100.00;100489.25;5074763;28;20424;-68
2020/12/01 12:23:53;;;;;;;32.15;16.88;;;;;;;2.66;100.00;100492.63;5074998;28;20121;-68
2020/12/01 12:26:37;;;;;;;33.13;18.17;;;;;;;2.65;100.00;100493.56;5074875;28;20082;-67
2020/12/01 12:29:21;;;;;;;27.85;12.93;;;;;;;2.64;100.00;100490.09;5075110;28;20093;-68
2020/12/01 12:32:05;;;;;;;27.02;15.02;;;;;;;2.63;100.00;100484.94;5075542;28;20051;-68
2020/12/01 12:34:48;;;;;;;30.27;17.23;;;;;;;2.65;100.00;100483.06;5074451;28;20078;-67
2020/12/01 12:37:33;;;;;;;29.13;17.23;;;;;;;2.71;100.00;100480.91;5074394;28;20132;-67
2020/12/01 12:40:18;;;;;;;27.80;16.23;;;;;;;2.73;100.00;100481.66;5074655;28;20098;-67
2020/12/01 12:43:02;;;;;;;30.73;15.77;;;;;;;2.67;100.00;100471.50;5060594;28;20052;-68
2020/12/01 12:45:47;;;;;;;29.27;15.85;;;;;;;2.68;100.00;100464.44;5075174;28;20048;-67
2020/12/01 12:48:32;;;;;;;31.15;15.10;;;;;;;2.73;100.00;100478.19;5075291;28;20070;-68
2020/12/01 12:51:16;;;;;;;;;;;;;;;2.65;100.00;100472.53;5074916;28;20055;-67
2020/12/01 12:54:00;;;;;;;30.67;15.50;;;;;;;2.70;100.00;100475.72;5074098;28;19920;-68
2020/12/01 12:56:44;;;;;;;33.92;17.75;;;;;;;2.70;100.00;100468.69;5060092;28;20511;-68
2020/12/01 12:59:28;;;;;;;33.95;18.33;;;;;;;2.82;100.00;100470.59;5074279;28;20051;-68
2020/12/01 13:02:11;;;;;;;34.72;17.88;;;;;;;2.84;100.00;100471.31;5075145;28;20091;-67
2020/12/01 13:04:55;;;;;;;;;;;;;;;2.85;100.00;100469.56;5074281;28;20051;-64
2020/12/01 13:07:39;;;;;;;26.53;14.27;;;;;;;2.95;100.00;100470.72;5074940;28;20341;-67
2020/12/01 13:10:23;;;;;;;28.65;15.73;;;;;;;2.95;100.00;100475.97;5074973;28;20281;-67
2020/12/01 13:13:08;;;;;;;30.48;16.80;;;;;;;2.98;100.00;100475.78;5073939;28;20083;-66
2020/12/01 13:15:52;;;;;;;29.67;15.98;;;;;;;2.95;100.00;100483.88;5073628;28;20043;-68
2020/12/01 13:18:36;;;;;;;33.58;15.88;;;;;;;2.92;100.00;100486.69;5073408;28;20051;-68
2020/12/01 13:21:20;;;;;;;26.42;14.45;;;;;;;2.93;100.00;100489.22;5074596;28;20052;-67
2020/12/01 13:24:04;;;;;;;23.08;13.60;;;;;;;2.89;100.00;100489.50;5059444;28;20056;-67
2020/12/01 13:26:51;;;;;;;29.92;14.80;;;;;;;2.94;100.00;100490.09;5074463;28;20093;-67
2020/12/01 13:29:35;;;;;;;29.45;15.05;;;;;;;2.94;100.00;100490.09;5073470;28;20062;-68